Time;durP1;ratioP1;P1;durP2;ratioP2;P2;SDS_P1;SDS_P2;PMS_P1;PMS_P2;Temp;Humidity;BMP_temperature;BMP_pressure;BME280_temperature;BME280_humidity;BME280_pressure;Samples;Min_cycle;Max_cycle;Signal;HPM_P1;HPM_P2
2021/12/20 00:01:58;;;;;;;2.25;1.07;;;;;;;2.22;78.43;98513.77;1643310;85;21013;-76
2021/12/20 00:04:24;;;;;;;3.73;1.27;;;;;;;2.20;78.74;98513.13;1667470;84;21478;-73
2021/12/20 00:06:50;;;;;;;2.08;1.30;;;;;;;2.24;78.54;98519.17;1686118;83;21014;-74
2021/12/20 00:09:16;;;;;;;2.65;1.55;;;;;;;2.27;78.34;98510.11;1685474;83;21453;-75
2021/12/20 00:11:43;;;;;;;1.57;0.82;;;;;;;2.25;78.50;98516.05;1723420;82;21075;-75
2021/12/20 00:14:10;;;;;;;1.87;1.73;;;;;;;2.18;78.54;98520.38;1719410;81;21042;-74
2021/12/20 00:16:36;;;;;;;1.22;0.78;;;;;;;2.12;78.60;98527.16;1697344;81;21072;-74
2021/12/20 00:19:02;;;;;;;1.12;0.75;;;;;;;2.06;78.76;98535.27;1715492;81;21027;-74
2021/12/20 00:21:29;;;;;;;2.25;0.82;;;;;;;2.09;78.40;98537.55;1712022;81;21046;-76
2021/12/20 00:23:55;;;;;;;0.75;0.20;;;;;;;2.09;78.35;98540.17;1710788;80;20981;-70
2021/12/20 00:26:21;;;;;;;0.30;0.17;;;;;;;2.05;78.45;98535.44;1717361;81;20998;-70
2021/12/20 00:28:47;;;;;;;0.65;0.10;;;;;;;1.92;78.33;98532.93;1722792;81;21077;-77
2021/12/20 00:31:14;;;;;;;0.60;0.10;;;;;;;1.81;78.61;98541.70;1720544;81;20990;-76
2021/12/20 00:33:40;;;;;;;0.50;0.30;;;;;;;1.72;78.75;98547.03;1719307;81;21030;-70
2021/12/20 00:36:08;;;;;;;0.30;0.10;;;;;;;1.67;79.19;98544.10;1688481;83;21090;-73
2021/12/20 00:41:22;;;;;;;0.50;0.20;;;;;;;1.65;79.00;98538.71;1708574;81;21033;-76
2021/12/20 00:43:49;;;;;;;1.03;0.10;;;;;;;1.59;79.26;98538.91;1678199;83;21599;-80
2021/12/20 00:46:15;;;;;;;;;;;;;;;1.52;79.48;98547.16;1716689;82;20998;-77
2021/12/20 00:48:41;;;;;;;0.50;0.10;;;;;;;1.48;79.65;98543.25;1700339;83;20104;-79
2021/12/20 00:51:07;;;;;;;0.93;0.28;;;;;;;1.39;79.99;98545.61;1702705;82;21016;-78
2021/12/20 00:53:34;;;;;;;0.20;0.17;;;;;;;1.40;80.12;98552.00;1705629;82;21080;-80
2021/12/20 00:56:00;;;;;;;0.57;0.20;;;;;;;1.47;79.94;98554.73;1728906;82;21055;-72
2021/12/20 00:58:27;;;;;;;0.93;0.20;;;;;;;1.52;79.96;98558.47;1727425;81;21004;-77
2021/12/20 01:00:55;;;;;;;0.20;0.20;;;;;;;1.51;80.18;98559.98;1730030;82;21505;-79
2021/12/20 01:03:21;;;;;;;0.30;0.30;;;;;;;1.45;80.76;98552.78;1675614;83;21636;-79
2021/12/20 01:05:48;;;;;;;0.30;0.10;;;;;;;1.40;81.35;98557.25;1682256;83;21556;-78
2021/12/20 01:08:16;;;;;;;1.70;0.20;;;;;;;1.40;81.39;98556.44;1672044;83;21028;-72
2021/12/20 01:10:48;;;;;;;1.13;0.20;;;;;;;1.48;81.34;98561.13;1646847;85;21111;-74
2021/12/20 01:13:16;;;;;;;0.40;0.17;;;;;;;1.53;81.12;98561.44;1719887;81;21034;-76
2021/12/20 01:15:48;;;;;;;0.30;0.20;;;;;;;1.54;81.13;98560.94;1741178;81;21082;-75
2021/12/20 01:18:11;;;;;;;0.30;0.20;;;;;;;1.49;81.20;98556.72;1740743;80;21127;-76
2021/12/20 01:20:41;;;;;;;0.80;0.30;;;;;;;1.44;81.35;98560.35;1732200;81;21093;-74
2021/12/20 01:23:08;;;;;;;0.53;0.30;;;;;;;1.46;81.38;98555.23;1674896;84;21884;-73
2021/12/20 01:25:36;;;;;;;0.20;0.20;;;;;;;1.48;81.13;98558.50;1683920;83;21061;-75
2021/12/20 01:28:04;;;;;;;0.23;0.13;;;;;;;1.53;80.88;98557.50;1678537;83;21066;-74
2021/12/20 01:30:32;;;;;;;1.00;0.20;;;;;;;1.57;80.93;98567.16;1682610;83;21010;-75
2021/12/20 01:32:59;;;;;;;0.93;0.33;;;;;;;1.57;80.95;98565.84;1690431;83;21027;-72
2021/12/20 01:35:27;;;;;;;0.72;0.40;;;;;;;1.55;81.39;98569.14;1697763;83;21118;-74
2021/12/20 01:37:56;;;;;;;5.67;0.87;;;;;;;1.55;81.51;98569.95;1687667;83;21078;-74
2021/12/20 01:40:23;;;;;;;1.17;0.90;;;;;;;1.55;81.58;98559.95;1673197;83;21918;-75
2021/12/20 01:42:56;;;;;;;1.13;0.50;;;;;;;1.52;81.33;98558.98;1696891;83;21004;-74
2021/12/20 01:45:25;;;;;;;1.33;1.07;;;;;;;1.54;81.07;98560.94;1691788;82;21315;-74
2021/12/20 01:48:02;;;;;;;1.20;1.00;;;;;;;1.60;81.04;98548.91;1677169;82;21597;-72
2021/12/20 01:50:41;;;;;;;2.20;2.00;;;;;;;1.64;80.91;98550.20;1674233;82;21136;-75
2021/12/20 01:52:51;;;;;;;2.13;1.20;;;;;;;1.59;80.86;98546.80;1683531;82;21054;-75
2021/12/20 01:55:21;;;;;;;1.70;1.30;;;;;;;1.57;80.99;98547.47;1650391;84;21590;-71
2021/12/20 01:57:49;;;;;;;1.77;1.23;;;;;;;1.57;80.81;98559.28;1679461;83;21012;-76
2021/12/20 02:00:23;;;;;;;1.30;1.17;;;;;;;1.59;80.59;98553.36;1675714;79;21515;-74
2021/12/20 02:02:58;;;;;;;2.00;1.00;;;;;;;1.65;80.24;98548.71;1691607;83;21569;-73
2021/12/20 02:05:22;;;;;;;1.20;1.10;;;;;;;1.71;80.01;98555.08;1688511;83;21109;-74
2021/12/20 02:08:00;;;;;;;2.60;1.77;;;;;;;1.65;79.77;98558.41;1695792;83;21050;-74
2021/12/20 02:10:21;;;;;;;1.63;1.10;;;;;;;1.56;80.09;98568.14;1682462;83;21683;-73
2021/12/20 02:12:49;;;;;;;1.47;1.20;;;;;;;1.50;80.32;98562.27;1709815;81;21055;-74
2021/12/20 02:15:16;;;;;;;1.22;1.02;;;;;;;1.49;80.44;98557.53;1711706;81;21047;-77
2021/12/20 02:17:42;;;;;;;4.33;1.32;;;;;;;1.57;80.18;98563.22;1722798;81;21102;-74
2021/12/20 02:20:17;;;;;;;1.10;0.82;;;;;;;1.67;79.83;98565.62;1722276;81;21038;-73
2021/12/20 02:22:44;;;;;;;1.20;0.77;;;;;;;1.69;79.76;98555.24;1715764;81;21086;-73
2021/12/20 02:25:10;;;;;;;1.60;0.70;;;;;;;1.65;79.66;98559.72;1724914;81;20991;-70
2021/12/20 02:27:37;;;;;;;1.20;1.12;;;;;;;1.62;79.75;98562.21;1669871;84;21104;-71
2021/12/20 02:30:25;;;;;;;5.42;1.10;;;;;;;1.57;79.45;98565.84;1671085;84;20998;-75
2021/12/20 02:38:23;;;;;;;1.47;0.68;;;;;;;1.64;79.20;98574.67;1671150;84;21110;-71
2021/12/20 02:41:11;;;;;;;1.05;0.70;;;;;;;1.56;79.28;98574.70;1679621;84;21082;-73
2021/12/20 02:43:52;;;;;;;1.63;0.80;;;;;;;1.53;79.28;98573.76;1667802;84;21602;-74
2021/12/20 02:46:45;;;;;;;1.77;0.77;;;;;;;1.50;79.30;98578.03;1661800;83;21081;-72
2021/12/20 02:48:57;;;;;;;1.20;0.77;;;;;;;1.53;78.63;98573.25;1653299;84;21036;-73
2021/12/20 02:51:26;;;;;;;0.88;0.78;;;;;;;1.55;78.60;98575.20;1703067;82;21583;-74
2021/12/20 02:53:54;;;;;;;0.73;0.73;;;;;;;1.56;78.72;98576.02;1684930;84;22164;-75
2021/12/20 02:56:21;;;;;;;0.83;0.70;;;;;;;1.54;78.86;98584.56;1661717;84;21019;-75
2021/12/20 02:58:47;;;;;;;;;;;;;;;1.50;78.86;98595.91;1708847;83;21018;-73
2021/12/20 03:01:15;;;;;;;1.10;0.70;;;;;;;1.47;78.99;98580.52;1701560;83;20149;-73
2021/12/20 03:03:44;;;;;;;1.17;1.07;;;;;;;1.43;78.85;98584.95;1709639;82;21739;-74
2021/12/20 03:06:15;;;;;;;1.17;0.90;;;;;;;1.44;78.82;98595.80;1723651;82;21014;-74
2021/12/20 03:08:45;;;;;;;1.37;1.27;;;;;;;1.49;78.96;98594.29;1724621;82;21055;-69
2021/12/20 03:11:11;;;;;;;1.93;1.00;;;;;;;1.52;79.02;98589.98;1723101;82;21537;-73
2021/12/20 03:13:38;;;;;;;2.30;1.03;;;;;;;1.52;79.23;98595.74;1718480;82;21516;-73
2021/12/20 03:16:06;;;;;;;2.73;0.93;;;;;;;1.49;79.17;98591.66;1722621;82;21184;-73
2021/12/20 03:18:33;;;;;;;3.00;0.73;;;;;;;1.47;79.10;98591.02;1718258;82;21105;-75
2021/12/20 03:21:00;;;;;;;1.87;1.13;;;;;;;1.14;78.95;98529.99;1724292;82;21049;-72
2021/12/20 03:23:26;;;;;;;1.85;1.00;;;;;;;1.58;78.65;98590.29;1717069;82;21108;-74
2021/12/20 03:25:52;;;;;;;2.08;1.20;;;;;;;1.61;78.60;98592.58;1724691;82;21587;-73
2021/12/20 03:28:19;;;;;;;1.47;0.90;;;;;;;1.58;78.78;98587.66;1724126;82;21049;-75
2021/12/20 03:30:45;;;;;;;2.15;0.78;;;;;;;1.57;78.78;98576.35;1722016;82;21037;-76
2021/12/20 03:33:11;;;;;;;3.90;1.25;;;;;;;1.57;78.74;98589.48;1706635;82;20947;-70
2021/12/20 03:35:38;;;;;;;2.05;1.42;;;;;;;1.56;78.12;98586.52;1679359;84;21026;-71
2021/12/20 03:38:04;;;;;;;1.20;0.70;;;;;;;1.59;77.94;98579.62;1686061;84;20951;-70
2021/12/20 03:40:32;;;;;;;1.17;0.40;;;;;;;1.63;77.96;98591.41;1694009;84;20989;-70
2021/12/20 03:42:59;;;;;;;0.77;0.40;;;;;;;1.62;77.65;98591.10;1671647;84;21061;-70
2021/12/20 03:45:25;;;;;;;0.85;0.62;;;;;;;1.56;77.97;98587.83;1699716;82;21122;-71
2021/12/20 03:47:51;;;;;;;2.87;0.68;;;;;;;1.55;78.17;98588.84;1705484;82;21027;-73
2021/12/20 03:50:18;;;;;;;0.80;0.60;;;;;;;1.55;78.32;98592.78;1708429;82;21112;-71
2021/12/20 03:52:45;;;;;;;1.03;0.53;;;;;;;1.54;78.19;98595.06;1704446;82;21098;-72
2021/12/20 03:55:13;;;;;;;1.47;0.60;;;;;;;1.59;78.15;98597.19;1708095;82;21589;-72
2021/12/20 03:57:40;;;;;;;2.93;1.10;;;;;;;1.63;78.38;98594.03;1722977;81;20991;-71
2021/12/20 04:00:12;;;;;;;0.77;0.57;;;;;;;1.64;78.59;98604.03;1726349;81;21128;-71
2021/12/20 04:02:45;;;;;;;1.20;0.67;;;;;;;1.61;78.84;98598.64;1689263;83;21078;-73
2021/12/20 04:05:13;;;;;;;1.10;0.97;;;;;;;1.62;79.15;98597.67;1649819;85;21054;-72
2021/12/20 04:07:40;;;;;;;1.73;1.27;;;;;;;1.63;79.36;98608.48;1665188;85;21061;-72
2021/12/20 04:10:08;;;;;;;0.62;0.62;;;;;;;1.63;79.39;98595.34;1683419;83;21053;-74
2021/12/20 04:12:36;;;;;;;0.60;0.57;;;;;;;1.67;79.57;98601.88;1711586;83;20986;-72
2021/12/20 04:15:05;;;;;;;0.85;0.70;;;;;;;1.55;80.03;98609.84;1708754;83;20998;-71
2021/12/20 04:17:32;;;;;;;1.17;0.57;;;;;;;1.50;80.08;98612.16;1705780;83;21014;-72
2021/12/20 04:19:58;;;;;;;;;;;;;;;1.46;80.55;98608.25;1701149;83;21458;-72
2021/12/20 04:22:24;;;;;;;0.60;0.60;;;;;;;1.41;80.92;98611.88;1693281;83;20154;-73
2021/12/20 04:24:50;;;;;;;1.87;0.33;;;;;;;1.29;81.21;98620.14;1678476;83;21106;-71
2021/12/20 04:27:16;;;;;;;1.52;0.37;;;;;;;1.25;81.37;98622.78;1679370;83;21062;-72
2021/12/20 04:29:43;;;;;;;1.30;0.53;;;;;;;1.33;81.31;98620.11;1685054;83;21046;-72
2021/12/20 04:32:10;;;;;;;0.50;0.47;;;;;;;1.38;81.18;98623.55;1689527;83;21054;-71
2021/12/20 04:34:36;;;;;;;1.45;1.10;;;;;;;1.34;81.08;98628.33;1694155;83;21051;-72
2021/12/20 04:37:04;;;;;;;1.22;0.90;;;;;;;1.28;81.21;98628.17;1693223;83;21061;-72
2021/12/20 04:39:31;;;;;;;0.50;0.30;;;;;;;1.25;81.45;98628.53;1691442;83;20974;-72
2021/12/20 04:41:58;;;;;;;0.97;0.40;;;;;;;1.31;81.33;98631.28;1694161;83;21138;-72
2021/12/20 04:44:24;;;;;;;1.15;0.65;;;;;;;1.41;80.99;98638.95;1695913;83;21034;-70
2021/12/20 04:46:50;;;;;;;0.82;0.35;;;;;;;1.49;80.89;98634.18;1695679;83;21050;-70
2021/12/20 04:49:16;;;;;;;1.95;0.85;;;;;;;1.50;80.75;98633.17;1701502;83;20982;-69
2021/12/20 04:51:43;;;;;;;1.00;0.90;;;;;;;1.49;80.74;98632.86;1706795;83;21021;-70
2021/12/20 04:54:09;;;;;;;1.87;0.98;;;;;;;1.49;80.54;98627.61;1703690;83;21085;-69
2021/12/20 04:56:35;;;;;;;1.42;0.75;;;;;;;1.48;80.40;98629.91;1687779;83;21033;-70
2021/12/20 04:59:02;;;;;;;;;;;;;;;1.52;80.19;98640.38;1702609;82;21025;-69
2021/12/20 05:01:28;;;;;;;0.90;0.50;;;;;;;1.60;79.63;98634.27;1689377;82;20113;-70
2021/12/20 05:03:54;;;;;;;1.05;0.37;;;;;;;1.61;79.34;98639.86;1702092;82;20959;-69
2021/12/20 05:06:20;;;;;;;0.80;0.35;;;;;;;1.62;79.17;98646.25;1704615;82;21867;-69
2021/12/20 05:08:49;;;;;;;0.80;0.78;;;;;;;1.62;78.91;98648.04;1693604;82;21112;-69
2021/12/20 05:11:16;;;;;;;1.27;0.67;;;;;;;1.57;78.60;98656.45;1697841;82;21032;-68
2021/12/20 05:13:43;;;;;;;1.63;0.60;;;;;;;1.55;78.55;98659.74;1697107;82;21014;-69
2021/12/20 05:16:10;;;;;;;;;;;;;;;1.53;78.14;98651.22;1700189;82;21057;-70
2021/12/20 05:18:38;;;;;;;1.10;0.57;;;;;;;1.57;77.96;98655.64;1703318;82;20418;-70
2021/12/20 05:21:05;;;;;;;0.88;0.65;;;;;;;1.57;78.19;98663.52;1705608;82;21061;-69
2021/12/20 05:23:31;;;;;;;1.05;1.00;;;;;;;1.54;78.28;98655.47;1699304;81;21686;-70
2021/12/20 05:25:58;;;;;;;1.57;0.88;;;;;;;1.43;78.39;98657.16;1686840;83;21061;-70
2021/12/20 05:28:24;;;;;;;2.95;1.92;;;;;;;1.32;78.90;98659.69;1694339;83;21011;-69
2021/12/20 05:30:53;;;;;;;2.07;1.47;;;;;;;1.26;78.83;98666.43;1694294;83;21528;-69
2021/12/20 05:33:23;;;;;;;3.03;1.87;;;;;;;1.27;78.88;98660.18;1697177;82;21098;-68
2021/12/20 05:35:51;;;;;;;1.70;1.60;;;;;;;1.34;79.04;98668.20;1703067;82;21097;-70
2021/12/20 05:38:18;;;;;;;2.47;2.27;;;;;;;1.38;78.81;98665.56;1712687;82;21098;-70
2021/12/20 05:40:44;;;;;;;2.50;1.70;;;;;;;1.36;78.96;98674.91;1713392;82;21031;-67
2021/12/20 05:43:11;;;;;;;2.10;1.42;;;;;;;1.36;79.23;98668.35;1706789;82;21592;-70
2021/12/20 05:45:39;;;;;;;2.30;0.67;;;;;;;1.36;79.02;98667.54;1719157;82;21579;-67
2021/12/20 05:48:05;;;;;;;1.00;0.63;;;;;;;1.36;79.14;98668.85;1707807;82;21053;-69
2021/12/20 05:50:32;;;;;;;1.20;0.72;;;;;;;1.42;78.55;98672.60;1666517;84;21027;-69
2021/12/20 05:52:58;;;;;;;0.80;0.70;;;;;;;1.44;78.35;98675.87;1716130;82;21054;-69
2021/12/20 05:55:24;;;;;;;1.35;1.05;;;;;;;1.38;78.55;98681.31;1696617;82;20995;-70
2021/12/20 05:57:50;;;;;;;1.22;0.60;;;;;;;1.36;78.74;98681.98;1711894;82;20998;-69
2021/12/20 06:00:20;;;;;;;0.82;0.82;;;;;;;1.38;78.62;98682.63;1709814;82;20988;-69
2021/12/20 06:02:50;;;;;;;1.10;1.00;;;;;;;1.44;78.35;98691.63;1720025;82;20975;-71
2021/12/20 06:05:19;;;;;;;1.20;0.70;;;;;;;1.45;77.97;98691.94;1709422;82;21003;-71
2021/12/20 06:07:45;;;;;;;0.50;0.40;;;;;;;1.45;77.85;98689.31;1698877;82;21645;-70
2021/12/20 06:10:16;;;;;;;1.60;0.57;;;;;;;1.53;77.78;98697.17;1703036;82;21534;-71
2021/12/20 06:12:45;;;;;;;1.17;0.87;;;;;;;1.59;77.80;98704.87;1648701;86;21566;-68
2021/12/20 06:15:12;;;;;;;0.60;0.40;;;;;;;1.58;77.87;98696.66;1711375;82;21050;-70
2021/12/20 06:17:41;;;;;;;0.40;0.30;;;;;;;1.56;77.80;98698.13;1711872;82;21046;-68
2021/12/20 06:20:11;;;;;;;0.73;0.57;;;;;;;1.51;77.95;98702.59;1687724;82;21023;-70
2021/12/20 06:22:37;;;;;;;1.27;0.70;;;;;;;1.55;78.01;98704.39;1706554;82;21038;-71
2021/12/20 06:25:06;;;;;;;2.72;1.40;;;;;;;1.61;77.91;98713.39;1702710;82;21632;-69
2021/12/20 06:27:33;;;;;;;3.87;2.33;;;;;;;1.57;77.64;98708.97;1698747;82;21692;-70
2021/12/20 06:29:59;;;;;;;3.67;2.50;;;;;;;1.50;77.87;98712.76;1697401;82;21002;-67
2021/12/20 06:32:26;;;;;;;3.43;2.10;;;;;;;1.47;78.21;98712.27;1698572;82;21061;-69
2021/12/20 06:34:52;;;;;;;3.60;2.17;;;;;;;1.44;78.01;98713.95;1706460;81;21024;-69
2021/12/20 06:37:18;;;;;;;2.42;1.72;;;;;;;1.49;78.11;98718.20;1704524;82;21053;-70
2021/12/20 06:39:45;;;;;;;6.40;2.92;;;;;;;1.58;78.31;98725.03;1695820;82;21097;-69
2021/12/20 06:42:11;;;;;;;4.00;2.35;;;;;;;1.60;78.34;98731.44;1697249;82;21017;-69
2021/12/20 06:44:37;;;;;;;;;;;;;;;1.57;78.66;98734.42;1701097;82;21127;-69
2021/12/20 06:47:04;;;;;;;3.10;1.30;;;;;;;1.44;79.24;98737.58;1702670;82;20434;-71
2021/12/20 06:49:30;;;;;;;2.30;1.60;;;;;;;1.32;79.95;98737.94;1697494;82;21087;-68
2021/12/20 06:51:59;;;;;;;3.62;2.40;;;;;;;1.31;80.11;98732.84;1663617;84;20998;-70
2021/12/20 06:54:26;;;;;;;5.63;2.37;;;;;;;1.35;80.26;98738.89;1663026;84;21592;-70
2021/12/20 06:56:53;;;;;;;5.87;2.73;;;;;;;1.00;80.22;98674.54;1701753;82;21023;-70
2021/12/20 06:59:22;;;;;;;2.55;2.12;;;;;;;1.35;80.55;98734.95;1674260;84;21060;-70
2021/12/20 07:01:49;;;;;;;3.23;2.17;;;;;;;1.39;80.73;98739.88;1687622;83;21055;-70
2021/12/20 07:04:15;;;;;;;3.73;2.63;;;;;;;1.40;80.42;98741.03;1676238;83;21123;-70
2021/12/20 07:06:42;;;;;;;5.80;3.72;;;;;;;1.49;80.09;98747.09;1668529;85;21015;-71
2021/12/20 07:09:10;;;;;;;3.60;2.20;;;;;;;1.59;79.93;98742.95;1666079;84;21083;-74
2021/12/20 07:11:36;;;;;;;3.93;3.07;;;;;;;1.66;80.03;98751.80;1662910;84;21014;-70
2021/12/20 07:14:03;;;;;;;4.17;3.10;;;;;;;1.70;79.56;98750.45;1663263;84;21094;-72
2021/12/20 07:16:32;;;;;;;4.93;3.70;;;;;;;1.63;79.12;98745.05;1654395;84;20997;-72
2021/12/20 07:18:58;;;;;;;6.20;3.93;;;;;;;1.59;79.57;98749.02;1653272;84;21033;-71
2021/12/20 07:21:25;;;;;;;4.57;3.40;;;;;;;1.58;79.69;98757.05;1668989;84;21320;-72
2021/12/20 07:23:51;;;;;;;5.15;3.90;;;;;;;1.62;79.56;98751.31;1672113;84;20999;-69
2021/12/20 07:26:18;;;;;;;5.80;3.75;;;;;;;1.69;78.99;98757.50;1672455;84;21117;-70
2021/12/20 07:28:44;;;;;;;3.37;2.63;;;;;;;1.80;78.87;98754.19;1660638;84;21581;-70
2021/12/20 07:31:11;;;;;;;5.40;3.25;;;;;;;1.85;78.70;98757.13;1662231;84;21125;-69
2021/12/20 07:33:41;;;;;;;5.53;3.97;;;;;;;1.80;78.12;98755.00;1663934;85;21362;-69
2021/12/20 07:36:08;;;;;;;7.53;3.80;;;;;;;1.74;77.99;98752.56;1690515;83;21034;-71
2021/12/20 07:38:35;;;;;;;5.27;4.13;;;;;;;1.68;77.72;98764.26;1694269;83;21074;-72
2021/12/20 07:41:02;;;;;;;4.60;3.63;;;;;;;1.67;78.01;98760.79;1689222;83;20994;-69
2021/12/20 07:43:30;;;;;;;3.37;2.57;;;;;;;1.74;77.98;98765.70;1688918;84;21029;-73
2021/12/20 07:45:56;;;;;;;4.93;3.40;;;;;;;1.81;77.60;98759.28;1693599;83;20971;-68
2021/12/20 07:48:41;;;;;;;4.90;3.00;;;;;;;1.83;77.32;98772.22;1697430;83;21574;-66
2021/12/20 07:51:08;;;;;;;5.70;3.57;;;;;;;1.09;77.42;98651.70;1687493;83;21045;-68
2021/12/20 07:53:35;;;;;;;4.05;2.83;;;;;;;1.79;77.30;98780.13;1690705;83;21018;-67
2021/12/20 07:56:02;;;;;;;3.83;2.98;;;;;;;1.78;77.36;98789.82;1705201;82;20999;-68
2021/12/20 07:58:46;;;;;;;3.43;2.33;;;;;;;1.83;77.37;98798.02;1716470;82;21049;-67
2021/12/20 08:01:12;;;;;;;4.15;3.25;;;;;;;1.94;77.38;98796.81;1710563;82;21033;-67
2021/12/20 08:03:57;;;;;;;2.93;2.27;;;;;;;2.00;77.21;98792.20;1692731;82;21132;-67
2021/12/20 08:06:23;;;;;;;5.78;2.92;;;;;;;1.98;77.12;98798.13;1715586;82;21041;-67
2021/12/20 08:09:08;;;;;;;4.27;2.33;;;;;;;1.94;77.23;98802.06;1717630;82;21022;-67
2021/12/20 08:11:35;;;;;;;2.98;1.60;;;;;;;1.92;77.11;98807.98;1726364;80;21051;-67
2021/12/20 08:14:20;;;;;;;2.57;2.20;;;;;;;1.88;77.30;98808.01;1711121;82;21058;-66
2021/12/20 08:16:46;;;;;;;1.85;1.65;;;;;;;1.94;77.29;98806.01;1721306;82;21076;-67
2021/12/20 08:19:12;;;;;;;2.77;2.02;;;;;;;1.99;77.05;98807.64;1710503;82;21037;-66
2021/12/20 08:21:39;;;;;;;2.40;1.32;;;;;;;1.99;76.87;98802.38;1674173;84;21097;-66
2021/12/20 08:24:06;;;;;;;;;;;;;;;1.93;76.65;98807.83;1695784;82;20994;-66
2021/12/20 08:26:33;;;;;;;;;;;;;;;1.85;77.02;98805.23;1685497;83;20243;-68
2021/12/20 08:28:59;;;;;;;2.60;1.93;;;;;;;1.75;77.59;98806.75;1696960;83;20113;-67
2021/12/20 08:31:25;;;;;;;2.40;2.12;;;;;;;1.74;77.91;98815.61;1683573;83;21030;-68
2021/12/20 08:33:52;;;;;;;6.95;2.40;;;;;;;1.84;77.68;98814.09;1683615;82;21057;-68
2021/12/20 08:36:19;;;;;;;2.80;1.80;;;;;;;1.93;76.96;98814.39;1677986;83;21348;-67
2021/12/20 08:38:46;;;;;;;3.47;2.53;;;;;;;1.95;77.02;98811.60;1680703;83;21057;-67
2021/12/20 08:41:13;;;;;;;3.47;2.65;;;;;;;1.93;76.98;98810.45;1671502;85;21458;-67
2021/12/20 08:43:57;;;;;;;1.73;1.63;;;;;;;1.93;77.01;98807.02;1692267;83;21041;-68
2021/12/20 08:46:24;;;;;;;3.33;2.37;;;;;;;1.88;77.23;98811.45;1686524;84;21715;-67
2021/12/20 08:48:52;;;;;;;1.95;1.80;;;;;;;1.88;76.93;98800.12;1680579;84;21154;-69
2021/12/20 08:51:18;;;;;;;1.77;1.40;;;;;;;2.03;76.78;98818.63;1679638;84;21030;-68
2021/12/20 08:53:45;;;;;;;4.97;1.77;;;;;;;2.06;76.67;98820.93;1684985;84;20981;-68
2021/12/20 08:56:30;;;;;;;2.37;2.07;;;;;;;2.03;76.81;98819.44;1683554;83;21041;-66
2021/12/20 08:58:57;;;;;;;3.77;2.55;;;;;;;1.99;76.60;98816.84;1682356;84;21021;-66
2021/12/20 09:01:24;;;;;;;3.43;1.50;;;;;;;1.94;76.43;98823.09;1680437;84;21027;-66
2021/12/20 09:03:50;;;;;;;1.57;1.47;;;;;;;1.94;76.37;98814.73;1677082;84;21118;-69
2021/12/20 09:06:17;;;;;;;5.55;2.15;;;;;;;2.07;76.14;98817.30;1679099;84;20971;-66
2021/12/20 09:09:02;;;;;;;4.63;2.60;;;;;;;2.16;75.56;98809.70;1673136;84;21014;-69
2021/12/20 09:11:28;;;;;;;3.40;2.62;;;;;;;2.13;75.67;98810.88;1643287;83;21109;-67
2021/12/20 09:13:55;;;;;;;5.92;4.42;;;;;;;2.13;75.64;98816.13;1677980;84;21042;-67
2021/12/20 09:16:21;;;;;;;7.62;4.35;;;;;;;2.13;75.81;98809.56;1673712;84;21014;-66
2021/12/20 09:18:48;;;;;;;;;;;;;;;1.77;75.90;98759.77;1688181;84;21097;-67
2021/12/20 09:21:16;;;;;;;4.97;3.00;;;;;;;2.12;75.54;98814.98;1686078;84;20177;-66
2021/12/20 09:23:43;;;;;;;6.77;3.50;;;;;;;2.13;75.75;98820.58;1687876;83;21022;-67
2021/12/20 09:26:10;;;;;;;4.67;3.00;;;;;;;2.27;75.94;98822.46;1684383;84;21014;-67
2021/12/20 09:28:37;;;;;;;2.77;2.50;;;;;;;2.41;75.09;98822.72;1676097;84;21011;-66
2021/12/20 09:31:05;;;;;;;5.03;3.20;;;;;;;2.49;74.90;98817.44;1684476;84;21060;-67
2021/12/20 09:33:33;;;;;;;4.50;3.03;;;;;;;2.57;74.63;98809.98;1699542;82;21034;-67
2021/12/20 09:35:59;;;;;;;;;;;;;;;2.61;73.48;98817.34;1706217;82;21117;-67
2021/12/20 09:38:28;;;;;;;4.47;2.13;;;;;;;2.56;72.95;98814.91;1706357;82;20202;-66
2021/12/20 09:43:37;;;;;;;2.33;2.13;;;;;;;2.64;73.90;98818.32;1707462;82;20998;-66
2021/12/20 09:46:04;;;;;;;1.97;1.20;;;;;;;2.85;73.22;98808.47;1725504;82;21350;-66
2021/12/20 09:48:31;;;;;;;1.70;1.60;;;;;;;2.94;71.92;98811.87;1731274;82;21067;-67
2021/12/20 09:50:58;;;;;;;2.63;1.53;;;;;;;2.92;71.77;98816.49;1706261;82;21076;-68
2021/12/20 09:53:25;;;;;;;1.77;1.50;;;;;;;2.92;71.84;98818.62;1725127;82;21094;-67
2021/12/20 09:55:51;;;;;;;1.47;1.37;;;;;;;2.94;71.71;98818.45;1722490;78;20997;-67
2021/12/20 09:58:20;;;;;;;;;;;;;;;2.89;70.91;98812.37;1718274;82;21078;-69
2021/12/20 10:00:48;;;;;;;1.87;1.60;;;;;;;2.80;70.22;98817.38;1685314;84;20197;-68
2021/12/20 10:03:16;;;;;;;2.40;1.70;;;;;;;2.69;71.09;98820.41;1720911;82;21073;-66
2021/12/20 10:05:42;;;;;;;3.20;0.90;;;;;;;2.70;71.57;98813.67;1702802;82;21117;-67
2021/12/20 10:08:14;;;;;;;1.40;1.15;;;;;;;2.73;71.37;98812.02;1719811;82;21072;-68
2021/12/20 10:10:48;;;;;;;1.80;1.40;;;;;;;2.85;71.08;98811.61;1719701;82;21057;-67
2021/12/20 10:13:34;;;;;;;1.23;0.90;;;;;;;2.94;70.83;98811.87;1719037;82;21132;-68
2021/12/20 10:16:03;;;;;;;1.30;0.83;;;;;;;3.06;70.49;98818.84;1727787;82;21544;-68
2021/12/20 10:18:35;;;;;;;1.17;1.07;;;;;;;3.05;70.04;98820.66;1722190;82;21057;-68
2021/12/20 10:21:04;;;;;;;1.57;1.17;;;;;;;3.01;69.46;98817.23;1723896;82;21529;-68
2021/12/20 10:23:36;;;;;;;1.17;1.07;;;;;;;3.01;69.10;98818.55;1730544;82;21023;-69
2021/12/20 10:27:35;;;;;;;3.73;1.33;;;;;;;2.98;68.94;98818.41;1800315;78;22756;-68
2021/12/20 10:30:28;;;;;;;1.33;1.23;;;;;;;2.90;68.63;98824.56;1747451;80;21442;-67
2021/12/20 10:32:57;;;;;;;1.17;1.07;;;;;;;2.87;68.68;98826.72;1705589;82;21012;-67
2021/12/20 10:35:31;;;;;;;1.73;0.90;;;;;;;2.82;68.14;98821.97;1692811;83;21021;-67
2021/12/20 10:38:06;;;;;;;2.23;1.20;;;;;;;2.81;68.04;98817.71;1702809;83;21863;-67
2021/12/20 10:40:34;;;;;;;4.07;1.50;;;;;;;2.87;68.34;98827.53;1654092;84;21128;-68
2021/12/20 10:43:08;;;;;;;1.57;1.47;;;;;;;2.97;68.44;98819.39;1644357;86;21052;-67
2021/12/20 10:45:34;;;;;;;1.20;0.80;;;;;;;2.98;68.04;98818.41;1652064;84;21702;-67
2021/12/20 10:48:11;;;;;;;;;;;;;;;3.01;67.68;98817.23;1641180;85;21061;-68
2021/12/20 10:50:42;;;;;;;2.77;1.87;;;;;;;2.97;67.96;98820.70;1646668;85;20163;-68
2021/12/20 10:53:19;;;;;;;3.70;1.53;;;;;;;2.88;67.95;98818.66;1642446;85;21193;-67
2021/12/20 10:55:56;;;;;;;1.67;1.13;;;;;;;2.85;67.99;98819.00;1651275;85;21039;-68
2021/12/20 10:58:34;;;;;;;5.50;2.57;;;;;;;2.85;68.57;98816.87;1652960;85;21042;-68
2021/12/20 11:01:36;;;;;;;2.47;1.87;;;;;;;2.86;68.63;98823.28;1670693;85;21011;-67
2021/12/20 11:04:03;;;;;;;3.50;2.30;;;;;;;2.87;69.07;98824.90;1681236;85;21133;-67
2021/12/20 11:06:43;;;;;;;3.27;1.67;;;;;;;2.53;69.65;98770.88;1658435;85;21070;-68
2021/12/20 11:09:18;;;;;;;3.83;1.27;;;;;;;2.88;69.27;98822.60;1696119;83;21004;-69
2021/12/20 11:12:04;;;;;;;2.90;0.50;;;;;;;2.95;68.87;98821.89;1704319;82;20966;-68
2021/12/20 11:14:39;;;;;;;2.07;0.90;;;;;;;2.98;67.84;98839.47;1692832;84;21008;-66
2021/12/20 11:17:09;;;;;;;0.63;0.47;;;;;;;2.89;67.72;98829.99;1709441;82;21567;-70
2021/12/20 11:19:41;;;;;;;1.77;1.17;;;;;;;2.83;67.73;98839.41;1702953;82;21041;-70
2021/12/20 11:22:11;;;;;;;5.07;2.17;;;;;;;2.81;67.65;98842.71;1709554;82;21027;-69
2021/12/20 11:25:03;;;;;;;2.10;1.20;;;;;;;2.75;67.43;98838.16;1717880;82;21418;-71
2021/12/20 11:27:53;;;;;;;2.83;1.13;;;;;;;2.73;67.50;98853.27;1697083;84;21033;-69
2021/12/20 11:30:19;;;;;;;1.70;1.33;;;;;;;2.73;67.84;98845.38;1710349;82;21501;-68
2021/12/20 11:32:48;;;;;;;1.83;1.23;;;;;;;2.75;68.26;98850.47;1717617;82;21169;-70
2021/12/20 11:35:17;;;;;;;3.87;2.77;;;;;;;2.78;68.29;98847.00;1711115;82;21473;-70
2021/12/20 11:37:45;;;;;;;3.30;2.77;;;;;;;2.77;68.16;98837.48;1668764;84;21054;-69
2021/12/20 11:40:15;;;;;;;2.27;2.08;;;;;;;2.77;68.42;98843.22;1686015;83;20978;-68
2021/12/20 11:42:41;;;;;;;3.30;2.20;;;;;;;2.77;68.25;98846.69;1701090;82;20981;-69
2021/12/20 11:45:11;;;;;;;2.30;2.00;;;;;;;2.80;68.26;98842.37;1706216;82;20967;-69
2021/12/20 11:48:08;;;;;;;3.10;2.43;;;;;;;2.78;68.77;98845.68;1716400;82;21088;-68
2021/12/20 11:50:39;;;;;;;9.63;2.17;;;;;;;2.76;68.27;98847.67;1705754;83;20975;-68
2021/12/20 11:53:11;;;;;;;2.87;2.10;;;;;;;2.67;68.54;98851.34;1716665;83;21017;-69
2021/12/20 11:55:53;;;;;;;3.03;1.90;;;;;;;2.60;68.68;98851.23;1695988;83;21003;-68
2021/12/20 11:58:27;;;;;;;2.67;1.83;;;;;;;2.53;69.30;98848.46;1629827;86;21004;-68
2021/12/20 12:00:56;;;;;;;2.40;2.20;;;;;;;2.47;69.54;98855.73;1676600;84;21068;-69
2021/12/20 12:03:38;;;;;;;2.30;2.10;;;;;;;2.46;69.59;98854.09;1684158;84;21045;-69
2021/12/20 12:06:07;;;;;;;2.20;1.80;;;;;;;2.44;69.39;98862.64;1669367;84;21060;-68